Time,TemperatureF,DewpointF,PressureIn,WindDirection,WindDirectionDegrees,WindSpeedMPH,WindSpeedGustMPH,Humidity,HourlyPrecipIn,Conditions,Clouds,dailyrainin,SoftwareType,DateUTC
2013-12-11 00:00:00,19.1,10.2,30.13,ESE,113,1.3,1.3,68,0.00,,,0.00,WUHU216HW,2013-12-11 06:00:00,
2013-12-11 00:05:00,19.1,10.2,30.13,ESE,113,1.3,1.3,68,0.00,,,0.00,WUHU216HW,2013-12-11 06:05:00,
2013-12-11 00:30:00,19.1,10.2,30.12,East,90,0.0,0.0,68,0.00,,,0.00,WUHU216HW,2013-12-11 06:30:00,
2013-12-11 00:35:00,19.1,10.2,30.12,East,90,0.0,0.0,68,0.00,,,0.00,WUHU216HW,2013-12-11 06:35:00,
2013-12-11 01:00:00,19.3,10.6,30.11,ESE,113,0.7,0.7,69,0.00,,,0.00,WUHU216HW,2013-12-11 07:00:00,
2013-12-11 01:05:00,19.3,10.6,30.11,ESE,113,0.7,0.7,69,0.00,,,0.00,WUHU216HW,2013-12-11 07:05:00,
2013-12-11 01:30:00,19.1,10.5,30.11,SE,135,0.9,0.9,69,0.00,,,0.00,WUHU216HW,2013-12-11 07:30:00,
2013-12-11 01:35:00,19.1,10.5,30.11,SE,135,0.9,0.9,69,0.00,,,0.00,WUHU216HW,2013-12-11 07:35:00,
2013-12-11 02:00:00,19.1,10.5,30.11,ESE,113,0.4,0.4,69,0.00,,,0.00,WUHU216HW,2013-12-11 08:00:00,
2013-12-11 02:05:00,19.1,10.5,30.11,ESE,113,0.4,0.4,69,0.00,,,0.00,WUHU216HW,2013-12-11 08:05:00,
2013-12-11 02:30:00,19.1,10.2,30.12,SSE,158,2.9,2.9,68,0.00,,,0.00,WUHU216HW,2013-12-11 08:30:00,
2013-12-11 02:35:00,19.1,10.2,30.12,SSE,158,2.9,2.9,68,0.00,,,0.00,WUHU216HW,2013-12-11 08:35:00,
2013-12-11 03:00:00,18.7,10.2,30.13,SSE,158,0.0,0.0,69,0.00,,,0.00,WUHU216HW,2013-12-11 09:00:00,
2013-12-11 03:05:00,18.7,10.2,30.13,SSE,158,0.0,0.0,69,0.00,,,0.00,WUHU216HW,2013-12-11 09:05:00,
2013-12-11 03:30:00,18.2,10.4,30.14,ESE,113,0.0,0.0,71,0.00,,,0.00,WUHU216HW,2013-12-11 09:30:00,
2013-12-11 03:35:00,18.2,10.4,30.14,ESE,113,0.0,0.0,71,0.00,,,0.00,WUHU216HW,2013-12-11 09:35:00,
2013-12-11 04:00:00,18.2,11.2,30.14,NNE,23,0.4,0.4,74,0.00,,,0.00,WUHU216HW,2013-12-11 10:00:00,
2013-12-11 04:05:00,18.2,11.2,30.14,NNE,23,0.4,0.4,74,0.00,,,0.00,WUHU216HW,2013-12-11 10:05:00,
2013-12-11 04:30:00,17.8,11.2,30.14,ESE,113,0.0,0.0,75,0.00,,,0.00,WUHU216HW,2013-12-11 10:30:00,
2013-12-11 04:35:00,17.8,11.2,30.14,ESE,113,0.0,0.0,75,0.00,,,0.00,WUHU216HW,2013-12-11 10:35:00,
2013-12-11 05:00:00,17.8,11.4,30.15,North,0,0.7,0.7,76,0.00,,,0.00,WUHU216HW,2013-12-11 11:00:00,
2013-12-11 05:05:00,17.8,11.4,30.15,North,0,0.7,0.7,76,0.00,,,0.00,WUHU216HW,2013-12-11 11:05:00,
2013-12-11 05:30:00,18.2,12.3,30.17,NNW,338,0.4,0.4,78,0.00,,,0.00,WUHU216HW,2013-12-11 11:30:00,
2013-12-11 05:35:00,18.2,12.3,30.17,NNW,338,0.4,0.4,78,0.00,,,0.00,WUHU216HW,2013-12-11 11:35:00,
2013-12-11 06:00:00,17.8,12.1,30.19,North,0,0.4,0.4,78,0.00,,,0.00,WUHU216HW,2013-12-11 12:00:00,
2013-12-11 06:05:00,17.8,12.1,30.19,North,0,0.4,0.4,78,0.00,,,0.00,WUHU216HW,2013-12-11 12:05:00,
2013-12-11 06:30:00,16.9,11.2,30.20,NNW,338,0.4,0.4,78,0.00,,,0.00,WUHU216HW,2013-12-11 12:30:00,
2013-12-11 06:35:00,16.9,11.2,30.20,NNW,338,0.4,0.4,78,0.00,,,0.00,WUHU216HW,2013-12-11 12:35:00,
2013-12-11 07:00:00,16.2,10.5,30.21,WNW,293,0.2,0.2,78,0.00,,,0.00,WUHU216HW,2013-12-11 13:00:00,
2013-12-11 07:05:00,16.2,10.5,30.21,WNW,293,0.2,0.2,78,0.00,,,0.00,WUHU216HW,2013-12-11 13:05:00,
2013-12-11 07:30:00,15.3,9.6,30.23,NW,315,0.4,0.4,78,0.00,,,0.00,WUHU216HW,2013-12-11 13:30:00,
2013-12-11 07:35:00,15.3,9.6,30.23,NW,315,0.4,0.4,78,0.00,,,0.00,WUHU216HW,2013-12-11 13:35:00,
2013-12-11 08:00:00,14.8,9.1,30.25,WNW,293,1.8,1.8,78,0.00,,,0.00,WUHU216HW,2013-12-11 14:00:00,
2013-12-11 08:05:00,14.8,9.1,30.25,WNW,293,1.8,1.8,78,0.00,,,0.00,WUHU216HW,2013-12-11 14:05:00,
2013-12-11 08:30:00,16.2,10.8,30.27,WSW,248,1.8,1.8,79,0.00,,,0.00,WUHU216HW,2013-12-11 14:30:00,
2013-12-11 08:35:00,16.2,10.8,30.27,WSW,248,1.8,1.8,79,0.00,,,0.00,WUHU216HW,2013-12-11 14:35:00,
2013-12-11 09:00:00,15.8,10.2,30.29,WNW,293,2.7,2.7,78,0.00,,,0.00,WUHU216HW,2013-12-11 15:00:00,
2013-12-11 09:05:00,15.8,10.2,30.29,WNW,293,2.7,2.7,78,0.00,,,0.00,WUHU216HW,2013-12-11 15:05:00,
2013-12-11 09:30:00,15.7,9.4,30.32,WNW,293,5.4,5.4,76,0.00,,,0.00,WUHU216HW,2013-12-11 15:30:00,
2013-12-11 09:35:00,15.7,9.4,30.32,WNW,293,5.4,5.4,76,0.00,,,0.00,WUHU216HW,2013-12-11 15:35:00,
2013-12-11 10:00:00,16.6,9.4,30.33,North,0,2.9,2.9,73,0.00,,,0.00,WUHU216HW,2013-12-11 16:00:00,
2013-12-11 10:05:00,16.6,9.4,30.33,North,0,2.9,2.9,73,0.00,,,0.00,WUHU216HW,2013-12-11 16:05:00,
2013-12-11 10:30:00,16.4,7.3,30.35,WNW,293,4.0,4.0,67,0.00,,,0.00,WUHU216HW,2013-12-11 16:30:00,
2013-12-11 10:35:00,16.4,7.3,30.35,WNW,293,4.0,4.0,67,0.00,,,0.00,WUHU216HW,2013-12-11 16:35:00,
2013-12-11 11:00:00,22.3,10.5,30.36,North,0,5.4,5.4,60,0.00,,,0.00,WUHU216HW,2013-12-11 17:00:00,
2013-12-11 11:05:00,22.3,10.5,30.36,North,0,5.4,5.4,60,0.00,,,0.00,WUHU216HW,2013-12-11 17:05:00,
2013-12-11 11:30:00,25.9,13.2,30.36,North,0,0.0,0.0,58,0.00,,,0.00,WUHU216HW,2013-12-11 17:30:00,
2013-12-11 11:35:00,25.9,13.2,30.36,North,0,0.0,0.0,58,0.00,,,0.00,WUHU216HW,2013-12-11 17:35:00,
2013-12-11 12:00:00,24.1,9.0,30.37,North,0,0.0,0.0,52,0.00,,,0.00,WUHU216HW,2013-12-11 18:00:00,
2013-12-11 12:05:00,24.1,9.0,30.37,North,0,0.0,0.0,52,0.00,,,0.00,WUHU216HW,2013-12-11 18:05:00,
2013-12-11 12:30:00,22.9,7.4,30.37,West,270,3.8,3.8,51,0.00,,,0.00,WUHU216HW,2013-12-11 18:30:00,
2013-12-11 12:35:00,22.9,7.4,30.37,West,270,3.8,3.8,51,0.00,,,0.00,WUHU216HW,2013-12-11 18:35:00,
2013-12-11 13:00:00,18.5,3.8,30.37,North,0,0.0,0.0,52,0.00,,,0.00,WUHU216HW,2013-12-11 19:00:00,
2013-12-11 13:05:00,18.5,3.8,30.37,North,0,0.0,0.0,52,0.00,,,0.00,WUHU216HW,2013-12-11 19:05:00,
2013-12-11 13:30:00,17.1,2.4,30.38,NW,315,2.2,2.2,52,0.00,,,0.00,WUHU216HW,2013-12-11 19:30:00,
2013-12-11 13:35:00,17.1,2.4,30.38,NW,315,2.2,2.2,52,0.00,,,0.00,WUHU216HW,2013-12-11 19:35:00,
2013-12-11 14:00:00,17.6,3.0,30.39,North,0,0.0,0.0,52,0.00,,,0.00,WUHU216HW,2013-12-11 20:00:00,
2013-12-11 14:05:00,17.6,3.0,30.39,North,0,0.0,0.0,52,0.00,,,0.00,WUHU216HW,2013-12-11 20:05:00,
2013-12-11 14:30:00,12.2,-1.0,30.39,North,0,0.0,0.0,55,0.00,,,0.00,WUHU216HW,2013-12-11 20:30:00,
2013-12-11 14:35:00,12.2,-1.0,30.39,North,0,0.0,0.0,55,0.00,,,0.00,WUHU216HW,2013-12-11 20:35:00,
2013-12-11 15:00:00,12.6,-0.3,30.40,North,0,0.0,0.0,56,0.00,,,0.00,WUHU216HW,2013-12-11 21:00:00,
2013-12-11 15:05:00,12.6,-0.3,30.40,North,0,0.0,0.0,56,0.00,,,0.00,WUHU216HW,2013-12-11 21:05:00,
2013-12-11 15:30:00,9.2,-3.5,30.41,WNW,293,4.9,4.9,56,0.00,,,0.00,WUHU216HW,2013-12-11 21:30:00,
2013-12-11 15:35:00,9.2,-3.5,30.41,WNW,293,4.9,4.9,56,0.00,,,0.00,WUHU216HW,2013-12-11 21:35:00,
2013-12-11 16:00:00,6.8,-4.5,30.42,WNW,293,3.8,3.8,59,0.00,,,0.00,WUHU216HW,2013-12-11 22:00:00,
2013-12-11 16:05:00,6.8,-4.5,30.42,WNW,293,3.8,3.8,59,0.00,,,0.00,WUHU216HW,2013-12-11 22:05:00,
2013-12-11 16:30:00,4.9,-6.1,30.42,WNW,293,1.1,1.1,60,0.00,,,0.00,WUHU216HW,2013-12-11 22:30:00,
2013-12-11 16:35:00,4.9,-6.1,30.42,WNW,293,1.1,1.1,60,0.00,,,0.00,WUHU216HW,2013-12-11 22:35:00,
2013-12-11 17:00:00,3.6,-7.2,30.44,West,270,2.7,2.7,60,0.00,,,0.00,WUHU216HW,2013-12-11 23:00:00,
2013-12-11 17:05:00,3.6,-7.2,30.44,West,270,2.7,2.7,60,0.00,,,0.00,WUHU216HW,2013-12-11 23:05:00,
2013-12-11 17:30:00,2.3,-8.1,30.44,WNW,293,3.4,3.4,61,0.00,,,0.00,WUHU216HW,2013-12-11 23:30:00,
2013-12-11 17:35:00,2.3,-8.1,30.44,WNW,293,3.4,3.4,61,0.00,,,0.00,WUHU216HW,2013-12-11 23:35:00,
2013-12-11 18:00:00,1.6,-8.5,30.45,WNW,293,1.3,1.3,62,0.00,,,0.00,WUHU216HW,2013-12-12 00:00:00,
2013-12-11 18:05:00,1.6,-8.5,30.45,WNW,293,1.3,1.3,62,0.00,,,0.00,WUHU216HW,2013-12-12 00:05:00,
2013-12-11 18:30:00,0.4,-9.3,30.46,WNW,293,3.4,3.4,63,0.00,,,0.00,WUHU216HW,2013-12-12 00:30:00,
2013-12-11 18:35:00,0.4,-9.3,30.46,WNW,293,3.4,3.4,63,0.00,,,0.00,WUHU216HW,2013-12-12 00:35:00,
2013-12-11 19:00:00,0.2,-8.9,30.45,West,270,3.1,3.1,65,0.00,,,0.00,WUHU216HW,2013-12-12 01:00:00,
2013-12-11 19:05:00,0.2,-8.9,30.45,West,270,3.1,3.1,65,0.00,,,0.00,WUHU216HW,2013-12-12 01:05:00,
2013-12-11 19:30:00,0.0,-9.4,30.44,WNW,293,1.3,1.3,64,0.00,,,0.00,WUHU216HW,2013-12-12 01:30:00,
2013-12-11 19:35:00,0.0,-9.4,30.44,WNW,293,1.3,1.3,64,0.00,,,0.00,WUHU216HW,2013-12-12 01:35:00,
2013-12-11 20:00:00,0.0,-9.1,30.45,West,270,2.2,2.2,65,0.00,,,0.00,WUHU216HW,2013-12-12 02:00:00,
2013-12-11 20:05:00,0.0,-9.1,30.45,West,270,2.2,2.2,65,0.00,,,0.00,WUHU216HW,2013-12-12 02:05:00,
2013-12-11 20:30:00,0.0,-8.8,30.45,North,0,0.0,0.0,66,0.00,,,0.00,WUHU216HW,2013-12-12 02:30:00,
2013-12-11 20:35:00,0.0,-8.8,30.45,North,0,0.0,0.0,66,0.00,,,0.00,WUHU216HW,2013-12-12 02:35:00,
2013-12-11 21:00:00,-1.1,-9.8,30.45,North,0,0.0,0.0,66,0.00,,,0.00,WUHU216HW,2013-12-12 03:00:00,
2013-12-11 21:05:00,-1.1,-9.8,30.45,North,0,0.0,0.0,66,0.00,,,0.00,WUHU216HW,2013-12-12 03:05:00,
2013-12-11 21:30:00,-1.1,-9.2,30.46,North,0,0.0,0.0,68,0.00,,,0.00,WUHU216HW,2013-12-12 03:30:00,
2013-12-11 21:35:00,-1.1,-9.2,30.46,North,0,0.0,0.0,68,0.00,,,0.00,WUHU216HW,2013-12-12 03:35:00,
2013-12-11 22:00:00,-0.5,-8.4,30.45,WSW,248,1.1,1.1,69,0.00,,,0.00,WUHU216HW,2013-12-12 04:00:00,
2013-12-11 22:05:00,-0.5,-8.4,30.45,WSW,248,1.1,1.1,69,0.00,,,0.00,WUHU216HW,2013-12-12 04:05:00,
2013-12-11 22:30:00,0.0,-7.8,30.44,SW,225,0.7,0.7,69,0.00,,,0.00,WUHU216HW,2013-12-12 04:30:00,
2013-12-11 22:35:00,0.0,-7.8,30.44,SW,225,0.7,0.7,69,0.00,,,0.00,WUHU216HW,2013-12-12 04:35:00,
2013-12-11 23:00:00,0.4,-6.9,30.43,North,0,0.0,0.0,71,0.00,,,0.00,WUHU216HW,2013-12-12 05:00:00,
2013-12-11 23:01:00,0.4,-6.9,30.43,North,0,0.0,0.0,71,0.00,,,0.00,WUHU216HW,2013-12-12 05:01:00,
2013-12-11 23:06:00,0.4,-6.9,30.43,North,0,0.0,0.0,71,0.00,,,0.00,WUHU216HW,2013-12-12 05:06:00,
2013-12-11 23:30:00,0.4,-7.5,30.42,SSW,203,0.4,0.4,69,0.00,,,0.00,WUHU216HW,2013-12-12 05:30:00,
2013-12-11 23:35:00,0.4,-7.5,30.42,SSW,203,0.4,0.4,69,0.00,,,0.00,WUHU216HW,2013-12-12 05:35:00,